Time;durP1;ratioP1;P1;durP2;ratioP2;P2;SDS_P1;SDS_P2;PMS_P1;PMS_P2;Temp;Humidity;BMP_temperature;BMP_pressure;BME280_temperature;BME280_humidity;BME280_pressure;Samples;Min_cycle;Max_cycle;Signal;HPM_P1;HPM_P2
2023/08/24 00:01:34;;;;;;;4.43;1.50;;;21.00;92.40;;;;;;5073013;28;20045;-78
2023/08/24 00:03:59;;;;;;;4.32;1.52;;;21.00;92.50;;;;;;5073627;28;20052;-78
2023/08/24 00:06:25;;;;;;;3.15;1.33;;;20.90;92.40;;;;;;5106019;28;20044;-78
2023/08/24 00:08:51;;;;;;;4.35;1.65;;;20.90;92.50;;;;;;5073886;28;20051;-79
2023/08/24 00:11:16;;;;;;;4.03;1.45;;;20.90;92.50;;;;;;5073287;28;20045;-78
2023/08/24 00:13:52;;;;;;;5.25;1.80;;;20.80;92.50;;;;;;5073836;28;20041;-78
2023/08/24 00:16:21;;;;;;;7.78;1.77;;;20.80;92.50;;;;;;5073179;28;20397;-78
2023/08/24 00:18:47;;;;;;;4.43;1.63;;;20.80;92.60;;;;;;5071668;28;20048;-79
2023/08/24 00:21:22;;;;;;;3.38;1.38;;;20.70;92.60;;;;;;5072562;28;20050;-78
2023/08/24 00:23:48;;;;;;;3.00;1.40;;;20.60;92.60;;;;;;5072052;28;20055;-78
2023/08/24 00:26:16;;;;;;;5.07;1.63;;;20.60;92.60;;;;;;5071874;28;20105;-78
2023/08/24 00:28:42;;;;;;;4.20;1.80;;;20.60;92.70;;;;;;5072048;28;20123;-78
2023/08/24 00:31:08;;;;;;;4.03;1.58;;;20.50;92.70;;;;;;5072614;28;20127;-78
2023/08/24 00:33:34;;;;;;;4.03;1.52;;;20.50;92.80;;;;;;5072572;28;20047;-78
2023/08/24 00:36:03;;;;;;;3.92;1.58;;;20.40;92.80;;;;;;5072592;28;20040;-78
2023/08/24 00:38:29;;;;;;;3.90;1.65;;;20.40;92.90;;;;;;5073167;28;20454;-78
2023/08/24 00:40:56;;;;;;;4.28;1.95;;;20.40;92.90;;;;;;5072504;28;20068;-78
2023/08/24 00:43:23;;;;;;;3.35;1.60;;;20.30;93.00;;;;;;5072640;28;20080;-78
2023/08/24 00:45:55;;;;;;;4.28;1.77;;;20.20;93.00;;;;;;5072200;28;20045;-78
2023/08/24 00:48:25;;;;;;;4.70;1.90;;;20.10;92.80;;;;;;5072812;28;20049;-78
2023/08/24 00:51:00;;;;;;;4.40;1.65;;;20.10;93.00;;;;;;5072646;28;20047;-78
2023/08/24 00:53:28;;;;;;;4.00;1.67;;;20.00;93.10;;;;;;5071396;28;20043;-78
2023/08/24 00:55:54;;;;;;;4.38;1.67;;;20.00;93.20;;;;;;5071481;28;20090;-77
2023/08/24 00:58:20;;;;;;;4.07;1.50;;;19.90;93.40;;;;;;5071655;28;20040;-78
2023/08/24 01:00:46;;;;;;;5.07;1.67;;;19.90;93.50;;;;;;5072895;28;20040;-79
2023/08/24 01:03:12;;;;;;;3.85;1.50;;;19.80;93.50;;;;;;5072542;28;20048;-79
2023/08/24 01:05:37;;;;;;;4.30;1.50;;;19.80;93.50;;;;;;5072445;28;20047;-78
2023/08/24 01:08:04;;;;;;;4.50;1.65;;;19.80;93.60;;;;;;5073027;28;20041;-79
2023/08/24 01:11:03;;;;;;;4.32;1.63;;;19.70;93.60;;;;;;5071290;28;20083;-78
2023/08/24 01:13:41;;;;;;;4.60;1.83;;;19.60;93.60;;;;;;5062919;28;20064;-77
2023/08/24 01:16:34;;;;;;;3.95;1.70;;;19.60;93.70;;;;;;5070596;28;20101;-78
2023/08/24 01:19:02;;;;;;;2.92;1.52;;;19.60;93.00;;;;;;5055582;28;20099;-78
2023/08/24 01:21:29;;;;;;;3.90;1.58;;;19.60;93.70;;;;;;5072172;28;20059;-78
2023/08/24 01:24:00;;;;;;;4.38;1.67;;;19.50;93.70;;;;;;5072149;28;20041;-78
2023/08/24 01:26:27;;;;;;;4.53;1.48;;;19.50;93.70;;;;;;5072364;28;20048;-78
2023/08/24 01:28:53;;;;;;;3.08;1.13;;;19.40;93.80;;;;;;5067866;28;20091;-78
2023/08/24 01:31:19;;;;;;;2.97;1.48;;;19.40;93.80;;;;;;5076039;28;20093;-78
2023/08/24 01:33:45;;;;;;;3.95;1.48;;;19.40;93.80;;;;;;5075502;28;20048;-78
2023/08/24 01:36:13;;;;;;;3.40;1.60;;;19.30;93.70;;;;;;5076617;28;20431;-78
2023/08/24 01:38:39;;;;;;;3.58;1.70;;;19.30;93.80;;;;;;5076197;28;20067;-78
2023/08/24 01:41:26;;;;;;;3.83;1.50;;;19.30;93.90;;;;;;5076874;28;20487;-78
2023/08/24 01:43:54;;;;;;;3.53;1.73;;;19.30;93.90;;;;;;5076434;28;20490;-78
2023/08/24 01:46:21;;;;;;;3.35;1.58;;;19.30;93.90;;;;;;5074880;28;20514;-78
2023/08/24 01:48:48;;;;;;;2.85;1.40;;;19.30;94.00;;;;;;5075142;28;20063;-78
2023/08/24 01:51:15;;;;;;;5.00;1.73;;;19.30;94.00;;;;;;5076768;28;20080;-78
2023/08/24 01:53:41;;;;;;;4.38;1.50;;;19.30;93.80;;;;;;5076433;28;20059;-77
2023/08/24 01:56:14;;;;;;;4.88;1.90;;;19.30;93.90;;;;;;5076433;28;20048;-78
2023/08/24 01:58:40;;;;;;;3.55;1.70;;;19.30;93.80;;;;;;5076145;28;20510;-78
2023/08/24 02:01:08;;;;;;;4.88;1.63;;;19.30;93.80;;;;;;5074874;28;20094;-78
2023/08/24 02:03:33;;;;;;;4.13;1.90;;;19.20;93.80;;;;;;5075888;28;20048;-78
2023/08/24 02:05:59;;;;;;;4.32;1.77;;;19.20;93.80;;;;;;5076237;28;20041;-78
2023/08/24 02:08:25;;;;;;;3.72;1.60;;;19.20;93.90;;;;;;5075668;28;20051;-78
2023/08/24 02:10:50;;;;;;;5.20;1.70;;;19.20;94.20;;;;;;5076237;28;20086;-78
2023/08/24 02:13:16;;;;;;;4.75;1.80;;;19.20;93.90;;;;;;5074747;28;20040;-78
2023/08/24 02:15:42;;;;;;;4.55;1.80;;;19.20;93.90;;;;;;5075623;28;20059;-78
2023/08/24 02:18:07;;;;;;;4.53;1.73;;;19.20;93.90;;;;;;5075942;28;20042;-79
2023/08/24 02:20:40;;;;;;;5.05;1.83;;;19.10;93.80;;;;;;5076107;28;20087;-78
2023/08/24 02:23:06;;;;;;;5.68;1.70;;;19.10;93.80;;;;;;5074750;28;20123;-78
2023/08/24 02:25:32;;;;;;;4.20;1.65;;;19.10;94.20;;;;;;5075766;28;20120;-78
2023/08/24 02:27:58;;;;;;;5.45;2.00;;;19.10;93.90;;;;;;5075611;28;20088;-78
2023/08/24 02:30:24;;;;;;;5.28;1.80;;;19.10;93.90;;;;;;5075509;28;20044;-78
2023/08/24 02:32:51;;;;;;;6.15;2.05;;;19.00;93.90;;;;;;5075849;28;20048;-76
2023/08/24 02:35:17;;;;;;;4.40;1.98;;;19.00;93.80;;;;;;5075429;28;20037;-78
2023/08/24 02:37:43;;;;;;;6.22;2.15;;;18.90;93.90;;;;;;5074652;28;20059;-78
2023/08/24 02:40:09;;;;;;;6.30;2.20;;;18.90;93.80;;;;;;5075351;28;20387;-78
2023/08/24 02:42:35;;;;;;;4.97;2.00;;;18.80;93.70;;;;;;5075706;28;20052;-78
2023/08/24 02:45:01;;;;;;;3.35;1.70;;;18.80;94.00;;;;;;5073377;28;20406;-78
2023/08/24 02:47:26;;;;;;;4.00;1.90;;;18.80;93.80;;;;;;5063595;28;20144;-78
2023/08/24 02:49:52;;;;;;;4.55;1.98;;;18.70;93.80;;;;;;5055678;28;20052;-78
2023/08/24 02:52:18;;;;;;;4.15;1.98;;;18.70;93.80;;;;;;5064384;28;20131;-78
2023/08/24 02:54:43;;;;;;;4.93;1.90;;;18.70;94.10;;;;;;5074103;28;20136;-78
2023/08/24 02:57:09;;;;;;;5.25;1.90;;;18.60;93.90;;;;;;5074167;28;20051;-77
2023/08/24 02:59:35;;;;;;;4.38;1.90;;;18.60;93.90;;;;;;5074038;28;20398;-78
2023/08/24 03:02:00;;;;;;;5.72;1.90;;;18.60;93.90;;;;;;5073707;28;20041;-77
2023/08/24 03:04:27;;;;;;;5.95;2.08;;;18.50;93.90;;;;;;5061897;28;20049;-77
2023/08/24 03:06:52;;;;;;;3.35;1.65;;;18.50;93.90;;;;;;5060332;28;20139;-78
2023/08/24 03:09:18;;;;;;;5.40;1.98;;;18.50;94.00;;;;;;5074067;28;20145;-78
2023/08/24 03:11:44;;;;;;;6.22;2.20;;;18.50;94.20;;;;;;5073917;28;20110;-78
2023/08/24 03:14:09;;;;;;;3.95;1.85;;;18.50;94.40;;;;;;5074343;28;20045;-78
2023/08/24 03:16:41;;;;;;;3.60;1.60;;;18.40;94.40;;;;;;5067695;28;20123;-78
2023/08/24 03:19:11;;;;;;;4.30;1.90;;;18.40;94.50;;;;;;5107610;28;20082;-78
2023/08/24 03:21:36;;;;;;;5.28;1.90;;;18.40;94.40;;;;;;5074926;28;20052;-78
2023/08/24 03:24:04;;;;;;;6.35;1.83;;;18.40;94.50;;;;;;5073421;28;20044;-78
2023/08/24 03:26:32;;;;;;;4.28;1.70;;;18.30;94.40;;;;;;5074750;28;20125;-78
2023/08/24 03:28:58;;;;;;;3.58;1.80;;;18.30;94.40;;;;;;5074152;28;20115;-78
2023/08/24 03:31:26;;;;;;;3.85;1.88;;;18.30;94.40;;;;;;5074533;28;20132;-78
2023/08/24 03:33:55;;;;;;;4.68;2.10;;;18.30;94.40;;;;;;5073283;28;20052;-78
2023/08/24 03:36:21;;;;;;;5.53;1.98;;;18.30;94.40;;;;;;5074664;28;20075;-78
2023/08/24 03:38:46;;;;;;;5.00;2.10;;;18.20;94.50;;;;;;5074065;28;20483;-78
2023/08/24 03:41:12;;;;;;;5.07;2.00;;;18.20;94.70;;;;;;5074734;28;20048;-78
2023/08/24 03:43:37;;;;;;;4.55;2.00;;;18.20;94.70;;;;;;5073628;28;20037;-77
2023/08/24 03:46:05;;;;;;;4.07;2.00;;;18.20;94.60;;;;;;5083336;28;20620;-78
2023/08/24 03:48:31;;;;;;;4.28;1.80;;;18.20;94.60;;;;;;5073106;28;20091;-78
2023/08/24 03:50:57;;;;;;;3.97;1.83;;;18.20;94.70;;;;;;5072671;28;20048;-78
2023/08/24 03:53:24;;;;;;;4.20;1.80;;;18.10;94.80;;;;;;5072875;28;20383;-78
2023/08/24 03:55:51;;;;;;;4.70;2.10;;;18.10;94.70;;;;;;5074128;28;20044;-78
2023/08/24 03:58:16;;;;;;;4.38;1.70;;;18.10;94.50;;;;;;5071693;28;20051;-78
2023/08/24 04:00:48;;;;;;;10.38;2.05;;;18.10;94.30;;;;;;5067679;28;20040;-78
2023/08/24 04:03:14;;;;;;;4.63;1.73;;;18.00;94.30;;;;;;5074102;28;20403;-78
2023/08/24 04:05:40;;;;;;;4.18;1.73;;;18.00;94.30;;;;;;5073254;28;20037;-78
2023/08/24 04:08:05;;;;;;;5.25;2.10;;;18.00;94.50;;;;;;5073488;28;20052;-78
2023/08/24 04:10:31;;;;;;;6.38;1.70;;;18.00;94.50;;;;;;5073087;28;20482;-78
2023/08/24 04:12:57;;;;;;;6.50;2.00;;;18.00;94.60;;;;;;5072840;28;20135;-78
2023/08/24 04:15:25;;;;;;;10.00;2.10;;;17.90;94.60;;;;;;5073839;28;20135;-78
2023/08/24 04:17:54;;;;;;;4.65;2.00;;;17.90;94.70;;;;;;5073967;28;20037;-78
2023/08/24 04:20:21;;;;;;;4.97;2.20;;;17.90;94.60;;;;;;5073664;28;20081;-78
2023/08/24 04:22:47;;;;;;;4.97;2.20;;;17.80;94.70;;;;;;5073948;28;20494;-78
2023/08/24 04:25:12;;;;;;;4.35;1.95;;;17.90;94.90;;;;;;5072907;28;20111;-78
2023/08/24 04:27:38;;;;;;;5.88;2.10;;;17.90;94.90;;;;;;5068811;28;20033;-79
2023/08/24 04:30:04;;;;;;;5.00;2.10;;;17.80;95.00;;;;;;5103592;28;20429;-79
2023/08/24 04:32:32;;;;;;;4.32;1.83;;;17.80;94.90;;;;;;5073145;28;20045;-78
2023/08/24 04:34:58;;;;;;;7.07;2.13;;;17.80;94.90;;;;;;5071868;28;20132;-77
2023/08/24 04:37:23;;;;;;;5.13;2.30;;;17.80;95.00;;;;;;5072710;28;20127;-78
2023/08/24 04:39:49;;;;;;;4.80;2.00;;;17.80;95.10;;;;;;5072381;28;20428;-78
2023/08/24 04:42:14;;;;;;;5.60;1.98;;;17.80;95.20;;;;;;5073537;28;20044;-77
2023/08/24 04:44:41;;;;;;;7.40;2.08;;;17.70;95.20;;;;;;5072239;28;20088;-78
2023/08/24 04:47:07;;;;;;;5.45;2.10;;;17.70;95.20;;;;;;5073194;28;20044;-77
2023/08/24 04:49:32;;;;;;;4.82;2.10;;;17.70;95.20;;;;;;5071732;28;20046;-77
2023/08/24 04:51:58;;;;;;;5.18;1.95;;;17.70;95.10;;;;;;5073025;28;20109;-78
2023/08/24 04:54:24;;;;;;;5.22;2.00;;;17.70;95.00;;;;;;5073281;28;20490;-78
2023/08/24 04:56:49;;;;;;;5.57;2.10;;;17.70;95.00;;;;;;5072852;28;20078;-78
2023/08/24 04:59:15;;;;;;;3.95;1.92;;;17.60;95.20;;;;;;5072991;28;20040;-78
2023/08/24 05:01:40;;;;;;;4.47;2.03;;;17.60;95.50;;;;;;5073059;28;20051;-78
2023/08/24 05:04:06;;;;;;;5.60;2.28;;;17.50;95.20;;;;;;5071885;28;20133;-77
2023/08/24 05:06:32;;;;;;;4.10;2.17;;;17.60;95.30;;;;;;5072983;28;20182;-78
2023/08/24 05:08:57;;;;;;;5.68;1.90;;;17.60;95.30;;;;;;5073270;28;20052;-78
2023/08/24 05:11:24;;;;;;;5.65;2.13;;;17.50;95.30;;;;;;5071827;28;20040;-78
2023/08/24 05:13:50;;;;;;;5.53;1.92;;;17.50;95.50;;;;;;5073133;28;20513;-78
2023/08/24 05:16:16;;;;;;;6.07;2.05;;;17.50;95.50;;;;;;5072874;28;20044;-78
2023/08/24 05:18:41;;;;;;;5.30;2.30;;;17.50;95.30;;;;;;5072601;28;20119;-79
2023/08/24 05:21:07;;;;;;;4.38;2.10;;;17.50;95.30;;;;;;5072632;28;20036;-78
2023/08/24 05:23:34;;;;;;;5.00;1.90;;;17.50;95.40;;;;;;5073141;28;20055;-78
2023/08/24 05:26:00;;;;;;;6.05;1.90;;;17.40;95.40;;;;;;5072577;28;20127;-78
2023/08/24 05:28:30;;;;;;;3.63;1.92;;;17.40;95.20;;;;;;5072760;28;20041;-78
2023/08/24 05:30:56;;;;;;;5.88;2.20;;;17.40;95.50;;;;;;5072380;28;20289;-77
2023/08/24 05:33:23;;;;;;;5.78;2.20;;;17.40;95.50;;;;;;5071633;28;20434;-77
2023/08/24 05:35:50;;;;;;;5.63;1.98;;;17.40;95.30;;;;;;5082238;28;20088;-79
2023/08/24 05:38:16;;;;;;;4.28;2.25;;;17.40;95.40;;;;;;5093448;28;20036;-79
2023/08/24 05:40:43;;;;;;;4.28;1.98;;;17.40;95.50;;;;;;5093285;28;20044;-78
2023/08/24 05:43:09;;;;;;;6.95;2.83;;;17.40;95.60;;;;;;5093241;28;20048;-79
2023/08/24 05:45:35;;;;;;;4.65;2.20;;;17.40;95.50;;;;;;5092156;28;20048;-79
2023/08/24 05:48:01;;;;;;;7.03;2.30;;;17.40;95.70;;;;;;5074973;28;20139;-79
2023/08/24 05:50:27;;;;;;;6.47;2.40;;;17.40;95.50;;;;;;5072427;28;20457;-78
2023/08/24 05:52:52;;;;;;;3.78;1.83;;;17.40;95.50;;;;;;5073096;28;20049;-78
2023/08/24 05:55:18;;;;;;;4.85;2.15;;;17.40;95.20;;;;;;5071747;28;20048;-79
2023/08/24 05:57:44;;;;;;;6.85;2.58;;;17.30;95.20;;;;;;5071588;28;20101;-79
2023/08/24 06:00:10;;;;;;;4.88;2.20;;;17.30;95.00;;;;;;5072116;28;20049;-78
2023/08/24 06:02:37;;;;;;;4.80;2.30;;;17.40;95.00;;;;;;5072837;28;20067;-78
2023/08/24 06:05:03;;;;;;;4.72;2.22;;;17.40;95.00;;;;;;5072939;28;20045;-78
2023/08/24 06:07:29;;;;;;;5.22;2.30;;;17.40;95.20;;;;;;5072751;28;20037;-78
2023/08/24 06:09:56;;;;;;;6.53;3.03;;;17.40;95.40;;;;;;5072762;28;20080;-78
2023/08/24 06:12:22;;;;;;;6.10;2.60;;;17.40;95.40;;;;;;5072198;28;20406;-78
2023/08/24 06:14:48;;;;;;;6.70;2.95;;;17.40;95.20;;;;;;5073110;28;20048;-78
2023/08/24 06:17:13;;;;;;;6.63;2.75;;;17.40;95.40;;;;;;5058030;28;20041;-78
2023/08/24 06:19:39;;;;;;;6.28;2.35;;;17.40;95.50;;;;;;5055194;28;20049;-78
2023/08/24 06:22:05;;;;;;;6.63;2.50;;;17.40;95.40;;;;;;5054916;28;20073;-79
2023/08/24 06:24:31;;;;;;;5.07;2.13;;;17.40;95.20;;;;;;5068418;28;20045;-78
2023/08/24 06:26:59;;;;;;;5.15;2.20;;;17.40;95.20;;;;;;5062490;28;20124;-80
2023/08/24 06:29:27;;;;;;;6.78;2.40;;;17.40;95.20;;;;;;5075516;28;20528;-79
2023/08/24 06:31:52;;;;;;;5.93;2.47;;;17.50;95.30;;;;;;5063797;28;20048;-80
2023/08/24 06:34:18;;;;;;;6.50;2.50;;;17.50;95.20;;;;;;5069898;28;20041;-79
2023/08/24 06:36:44;;;;;;;6.18;2.35;;;17.60;95.30;;;;;;5054847;28;20051;-79
2023/08/24 06:39:09;;;;;;;5.63;2.38;;;17.60;95.50;;;;;;5067748;28;20094;-79
2023/08/24 06:41:35;;;;;;;4.47;2.22;;;17.70;95.60;;;;;;5063738;28;20044;-79
2023/08/24 06:44:01;;;;;;;6.03;2.15;;;17.70;95.60;;;;;;5075865;28;20089;-80
2023/08/24 06:46:27;;;;;;;4.78;2.05;;;17.80;95.60;;;;;;5075313;28;20798;-80
2023/08/24 06:48:52;;;;;;;5.63;2.25;;;17.80;95.50;;;;;;5075881;28;20502;-79
2023/08/24 06:51:18;;;;;;;5.57;2.20;;;17.80;95.50;;;;;;5074698;28;20044;-81
2023/08/24 06:53:46;;;;;;;7.43;2.28;;;17.90;95.50;;;;;;5074046;28;20051;-79
2023/08/24 06:56:14;;;;;;;6.53;2.20;;;18.00;95.50;;;;;;5057531;28;20411;-79
2023/08/24 06:58:39;;;;;;;5.03;2.30;;;18.00;95.50;;;;;;5075700;28;20052;-79
2023/08/24 07:01:05;;;;;;;6.60;2.30;;;18.00;95.50;;;;;;5074077;28;20494;-79
2023/08/24 07:03:33;;;;;;;4.97;1.95;;;18.10;95.90;;;;;;5075815;28;20121;-79
2023/08/24 07:05:59;;;;;;;4.28;2.10;;;18.10;95.50;;;;;;5075792;28;20045;-79
2023/08/24 07:08:24;;;;;;;4.13;2.00;;;18.20;95.40;;;;;;5075082;28;20485;-78
2023/08/24 07:10:50;;;;;;;8.52;2.30;;;18.30;95.40;;;;;;5075587;28;20051;-79
2023/08/24 07:13:16;;;;;;;5.88;2.28;;;18.30;95.40;;;;;;5075295;28;20418;-79
2023/08/24 07:15:42;;;;;;;3.97;1.85;;;18.30;95.40;;;;;;5075295;28;20124;-79
2023/08/24 07:18:08;;;;;;;8.38;3.40;;;18.40;95.30;;;;;;5075139;28;20478;-79
2023/08/24 07:20:34;;;;;;;4.25;2.13;;;18.40;95.70;;;;;;5095743;28;20076;-80
2023/08/24 07:23:03;;;;;;;5.18;2.03;;;18.50;95.60;;;;;;5088150;28;20402;-79
2023/08/24 07:25:29;;;;;;;8.57;3.00;;;18.60;95.40;;;;;;5075148;28;20048;-80
2023/08/24 07:27:59;;;;;;;5.78;2.28;;;18.60;95.70;;;;;;5073999;28;20041;-80
2023/08/24 07:30:27;;;;;;;7.53;3.60;;;18.70;95.50;;;;;;5075218;28;20402;-80
2023/08/24 07:32:54;;;;;;;8.13;3.58;;;18.80;95.80;;;;;;5074785;28;20057;-79
2023/08/24 07:35:20;;;;;;;6.72;2.75;;;18.90;95.80;;;;;;5073847;28;20037;-79
2023/08/24 07:37:49;;;;;;;9.35;4.18;;;19.00;95.50;;;;;;5073792;28;20603;-80
2023/08/24 07:40:15;;;;;;;10.05;3.92;;;19.00;95.60;;;;;;5074803;28;20553;-80
2023/08/24 07:42:46;;;;;;;8.10;2.80;;;19.10;95.70;;;;;;5074215;28;20131;-79
2023/08/24 07:45:11;;;;;;;6.50;2.72;;;19.20;95.60;;;;;;5088018;28;20062;-79
2023/08/24 07:47:37;;;;;;;6.22;2.78;;;19.30;95.40;;;;;;5078445;28;20060;-79
2023/08/24 07:50:03;;;;;;;7.20;3.50;;;19.30;95.30;;;;;;5074731;28;20045;-79
2023/08/24 07:52:29;;;;;;;9.05;4.40;;;19.40;95.30;;;;;;5073452;28;20044;-80
2023/08/24 07:54:59;;;;;;;9.30;4.63;;;19.50;95.80;;;;;;5056236;28;20063;-79
2023/08/24 07:57:26;;;;;;;8.10;4.00;;;19.60;96.00;;;;;;5061464;28;20478;-79
2023/08/24 07:59:52;;;;;;;8.18;3.70;;;19.70;95.70;;;;;;5094964;28;20044;-79
2023/08/24 08:02:18;;;;;;;7.30;3.70;;;19.80;95.60;;;;;;5094743;28;20555;-79
2023/08/24 08:04:43;;;;;;;8.73;5.20;;;19.80;95.50;;;;;;5085093;28;20040;-79
2023/08/24 08:07:09;;;;;;;8.77;4.45;;;19.90;95.70;;;;;;5072552;28;20457;-79
2023/08/24 08:09:36;;;;;;;12.32;5.35;;;20.00;96.10;;;;;;5073605;28;20451;-79
2023/08/24 08:12:03;;;;;;;9.68;4.72;;;20.10;96.30;;;;;;5074463;28;20045;-79
2023/08/24 08:14:29;;;;;;;7.00;3.85;;;20.20;96.10;;;;;;5074031;28;20051;-79
2023/08/24 08:16:56;;;;;;;10.52;5.05;;;20.30;95.90;;;;;;5073027;28;20040;-79
2023/08/24 08:19:21;;;;;;;8.80;4.00;;;20.40;96.30;;;;;;5072815;28;20091;-79
2023/08/24 08:21:47;;;;;;;8.73;3.30;;;20.50;95.90;;;;;;5072339;28;20076;-79
2023/08/24 08:24:13;;;;;;;7.28;4.00;;;20.50;95.30;;;;;;5073450;28;20048;-79
2023/08/24 08:26:38;;;;;;;6.78;3.47;;;20.60;95.20;;;;;;5082735;28;20082;-79
2023/08/24 08:29:05;;;;;;;7.78;3.80;;;20.70;95.10;;;;;;5076241;28;20044;-79
2023/08/24 08:31:31;;;;;;;10.57;5.25;;;20.80;95.10;;;;;;5073997;28;20055;-79
2023/08/24 08:33:56;;;;;;;10.93;4.35;;;20.90;95.60;;;;;;5073483;28;20040;-79
2023/08/24 08:36:22;;;;;;;7.53;3.55;;;20.90;95.40;;;;;;5073787;28;20047;-79
2023/08/24 08:38:49;;;;;;;10.60;3.97;;;21.00;95.00;;;;;;5072579;28;20055;-79
2023/08/24 08:41:16;;;;;;;8.80;4.00;;;21.10;94.90;;;;;;5073307;28;20199;-79
2023/08/24 08:43:41;;;;;;;6.32;3.08;;;21.20;94.80;;;;;;5073930;28;20044;-79
2023/08/24 08:46:07;;;;;;;9.95;4.07;;;21.30;94.60;;;;;;5073702;28;20041;-80
2023/08/24 08:48:35;;;;;;;10.85;4.28;;;21.30;94.70;;;;;;5072188;28;20053;-79
2023/08/24 08:51:02;;;;;;;7.53;3.40;;;21.40;95.10;;;;;;5072378;28;20074;-79
2023/08/24 08:53:28;;;;;;;6.47;3.03;;;21.50;94.80;;;;;;5073607;28;20113;-79
2023/08/24 08:55:55;;;;;;;6.60;3.22;;;21.60;94.30;;;;;;5073004;28;20048;-79
2023/08/24 08:58:21;;;;;;;6.65;3.08;;;21.60;94.20;;;;;;5073428;28;20491;-79
2023/08/24 09:00:48;;;;;;;4.93;3.08;;;21.70;94.40;;;;;;5073599;28;20048;-81
2023/08/24 09:03:17;;;;;;;9.95;4.53;;;21.70;94.00;;;;;;5071956;28;20105;-80
2023/08/24 09:05:42;;;;;;;9.18;4.07;;;21.80;94.40;;;;;;5073359;28;20071;-81
2023/08/24 09:08:09;;;;;;;8.75;4.10;;;21.90;94.40;;;;;;5072599;28;20048;-81
2023/08/24 09:10:35;;;;;;;12.20;4.75;;;21.90;94.50;;;;;;5084578;28;20056;-81
2023/08/24 09:13:00;;;;;;;8.93;4.60;;;22.00;95.00;;;;;;5080687;28;20052;-81
2023/08/24 09:15:27;;;;;;;11.68;5.00;;;22.10;95.20;;;;;;5073114;28;20383;-81
2023/08/24 09:17:56;;;;;;;9.73;4.22;;;22.10;94.80;;;;;;5072848;28;20048;-81
2023/08/24 09:20:21;;;;;;;14.68;5.68;;;22.20;94.80;;;;;;5073273;28;20489;-81
2023/08/24 09:22:47;;;;;;;10.80;4.65;;;22.30;94.80;;;;;;5072941;28;20079;-80
2023/08/24 09:25:13;;;;;;;8.00;4.13;;;22.30;94.70;;;;;;5073507;28;20037;-81
2023/08/24 09:27:38;;;;;;;9.65;4.25;;;22.40;94.70;;;;;;5073014;28;20078;-81
2023/08/24 09:30:07;;;;;;;7.63;3.95;;;22.40;94.60;;;;;;5073034;28;20040;-81
2023/08/24 09:32:33;;;;;;;11.85;4.80;;;22.50;94.50;;;;;;5073013;28;20102;-81
2023/08/24 09:35:11;;;;;;;10.80;4.68;;;22.50;94.40;;;;;;5073047;28;20052;-81
2023/08/24 09:37:38;;;;;;;7.18;4.18;;;22.50;94.40;;;;;;5073279;28;20052;-81
2023/08/24 09:40:08;;;;;;;7.80;3.85;;;22.60;94.40;;;;;;5072170;28;20048;-81
2023/08/24 09:42:42;;;;;;;9.05;4.07;;;22.60;94.20;;;;;;5073152;28;20040;-81
2023/08/24 09:45:12;;;;;;;9.63;4.95;;;22.70;94.10;;;;;;5073021;28;20056;-80
2023/08/24 09:47:38;;;;;;;7.70;4.00;;;22.70;94.10;;;;;;5072868;28;20056;-81
2023/08/24 09:50:05;;;;;;;10.90;4.70;;;22.70;94.10;;;;;;5073971;28;20410;-81
2023/08/24 09:52:32;;;;;;;7.47;3.63;;;22.70;94.10;;;;;;5077143;28;20166;-80
2023/08/24 09:55:06;;;;;;;8.60;3.80;;;22.80;94.00;;;;;;5076659;28;20372;-81
2023/08/24 09:57:41;;;;;;;8.85;5.43;;;22.80;94.00;;;;;;5076918;28;20053;-80
2023/08/24 10:00:14;;;;;;;10.63;5.68;;;22.80;94.00;;;;;;5076773;28;20036;-81
2023/08/24 10:03:01;;;;;;;10.35;4.85;;;22.90;94.10;;;;;;5076981;28;20098;-81
2023/08/24 10:05:28;;;;;;;8.98;5.03;;;22.80;93.90;;;;;;5076850;28;20044;-81
2023/08/24 10:07:56;;;;;;;7.50;4.05;;;22.90;94.10;;;;;;5076554;28;20059;-81
2023/08/24 10:10:24;;;;;;;7.25;3.78;;;22.90;94.00;;;;;;5076349;28;20040;-81
2023/08/24 10:12:59;;;;;;;6.93;3.35;;;22.90;94.00;;;;;;5076691;28;20379;-81
2023/08/24 10:15:26;;;;;;;8.93;3.90;;;23.00;93.90;;;;;;5077820;28;20519;-81
2023/08/24 10:17:53;;;;;;;9.35;5.82;;;23.00;94.00;;;;;;5078396;28;20493;-81
2023/08/24 10:20:20;;;;;;;10.80;6.05;;;23.00;94.00;;;;;;5076559;28;20045;-80
2023/08/24 10:22:46;;;;;;;7.35;3.95;;;23.00;93.90;;;;;;5076419;28;20109;-81
2023/08/24 10:25:13;;;;;;;8.40;4.95;;;23.00;94.00;;;;;;5076676;28;20462;-80
2023/08/24 10:27:43;;;;;;;6.07;3.50;;;23.10;94.00;;;;;;5076359;28;20482;-81
2023/08/24 10:30:14;;;;;;;6.18;3.20;;;23.00;93.90;;;;;;5076262;28;20048;-81
2023/08/24 10:32:43;;;;;;;6.88;3.47;;;23.10;93.90;;;;;;5076301;28;20061;-81
2023/08/24 10:35:09;;;;;;;6.15;3.38;;;23.10;93.80;;;;;;5075942;28;20486;-81
2023/08/24 10:37:34;;;;;;;7.57;4.10;;;23.10;93.90;;;;;;5076151;28;20040;-81
2023/08/24 10:40:00;;;;;;;10.77;5.40;;;23.10;93.90;;;;;;5076394;28;20124;-81
2023/08/24 10:42:26;;;;;;;9.90;6.55;;;23.10;94.10;;;;;;5074808;28;20060;-81
2023/08/24 10:44:52;;;;;;;11.65;6.30;;;23.10;94.30;;;;;;5075393;28;20102;-81
2023/08/24 10:47:22;;;;;;;9.75;5.55;;;23.10;94.30;;;;;;5075542;28;20053;-81
2023/08/24 10:49:54;;;;;;;10.63;5.03;;;23.10;94.20;;;;;;5075591;28;20131;-81
2023/08/24 10:52:21;;;;;;;9.53;4.33;;;23.10;94.10;;;;;;5075328;28;20063;-80
2023/08/24 10:54:52;;;;;;;8.15;4.20;;;23.10;94.20;;;;;;5075743;28;20275;-80
2023/08/24 10:57:35;;;;;;;10.00;5.50;;;23.20;94.10;;;;;;5074678;28;20498;-80
2023/08/24 11:00:10;;;;;;;8.02;3.83;;;23.20;94.00;;;;;;5075046;28;20040;-80
2023/08/24 11:02:50;;;;;;;9.85;3.75;;;23.20;94.00;;;;;;5073338;28;20127;-80
2023/08/24 11:05:32;;;;;;;7.38;3.50;;;23.20;93.90;;;;;;5075102;28;20044;-80
2023/08/24 11:08:00;;;;;;;11.70;5.57;;;23.20;93.90;;;;;;5075217;28;20044;-80
2023/08/24 11:10:34;;;;;;;8.73;4.82;;;23.20;94.20;;;;;;5075507;28;20057;-80
2023/08/24 11:13:07;;;;;;;11.32;5.70;;;23.30;94.30;;;;;;5067508;28;20052;-80
2023/08/24 11:15:34;;;;;;;7.47;3.78;;;23.30;94.40;;;;;;5067303;28;20483;-80
2023/08/24 11:18:24;;;;;;;11.32;6.55;;;23.30;94.20;;;;;;5058507;28;20049;-80
2023/08/24 11:21:02;;;;;;;10.93;6.25;;;23.30;94.40;;;;;;5062154;28;20114;-80
2023/08/24 11:23:28;;;;;;;9.55;5.80;;;23.30;94.70;;;;;;5072470;28;20478;-80
2023/08/24 11:25:59;;;;;;;10.07;6.40;;;23.30;94.60;;;;;;5075456;28;20091;-80
2023/08/24 11:28:46;;;;;;;13.27;7.22;;;23.40;94.80;;;;;;5059714;28;20127;-80
2023/08/24 11:31:11;;;;;;;8.43;4.88;;;23.40;94.70;;;;;;5061882;28;20545;-80
2023/08/24 11:33:37;;;;;;;10.55;6.32;;;23.40;94.60;;;;;;5059136;28;20076;-80
2023/08/24 11:36:04;;;;;;;13.52;7.35;;;23.40;94.60;;;;;;5064226;28;20371;-80
2023/08/24 11:38:38;;;;;;;11.70;7.13;;;23.40;94.90;;;;;;5071772;28;20052;-81
2023/08/24 11:41:17;;;;;;;13.75;7.53;;;23.40;95.00;;;;;;5064819;28;20083;-81
2023/08/24 11:43:47;;;;;;;10.60;7.13;;;23.50;95.10;;;;;;5061830;28;20041;-80
2023/08/24 11:46:15;;;;;;;10.88;7.60;;;23.50;95.20;;;;;;5063743;28;20040;-80
2023/08/24 11:48:41;;;;;;;11.50;7.25;;;23.50;95.30;;;;;;5056804;28;20112;-80
2023/08/24 11:51:12;;;;;;;11.95;7.40;;;23.60;95.50;;;;;;5069730;28;20064;-80
2023/08/24 11:53:45;;;;;;;9.25;4.85;;;23.60;95.50;;;;;;5060253;28;20041;-80
2023/08/24 11:56:12;;;;;;;7.75;4.10;;;23.60;94.70;;;;;;5070503;28;20124;-80
2023/08/24 11:58:42;;;;;;;12.35;7.38;;;23.70;94.50;;;;;;5074198;28;20060;-79
2023/08/24 12:01:09;;;;;;;10.13;6.35;;;23.70;94.80;;;;;;5067986;28;20102;-80
2023/08/24 12:03:38;;;;;;;12.20;7.00;;;23.70;95.10;;;;;;5077747;28;20040;-80
2023/08/24 12:06:17;;;;;;;8.30;4.93;;;23.70;94.90;;;;;;5074816;28;20069;-80
2023/08/24 12:08:45;;;;;;;11.85;6.65;;;23.70;94.30;;;;;;5066816;28;20468;-80
2023/08/24 12:11:19;;;;;;;10.80;6.38;;;23.80;94.60;;;;;;5067819;28;20045;-80
2023/08/24 12:14:09;;;;;;;8.35;5.05;;;23.80;94.40;;;;;;5068087;28;20028;-80
2023/08/24 12:16:35;;;;;;;10.85;6.00;;;23.80;94.10;;;;;;5065594;28;20116;-81
2023/08/24 12:19:04;;;;;;;7.50;5.22;;;23.80;94.30;;;;;;5067907;28;20498;-81
2023/08/24 12:21:30;;;;;;;14.52;7.18;;;23.90;94.10;;;;;;5060995;28;20053;-80
2023/08/24 12:24:06;;;;;;;7.50;4.85;;;23.90;94.50;;;;;;5066013;28;20758;-80
2023/08/24 12:26:34;;;;;;;8.40;4.50;;;23.90;94.10;;;;;;5059871;28;20166;-80
2023/08/24 12:29:02;;;;;;;8.30;5.05;;;23.90;94.10;;;;;;5071642;28;20044;-80
2023/08/24 12:31:30;;;;;;;10.00;5.38;;;24.00;94.20;;;;;;5062430;28;20110;-81
2023/08/24 12:34:09;;;;;;;13.00;7.88;;;23.90;94.00;;;;;;5065988;28;20484;-80
2023/08/24 12:36:36;;;;;;;6.93;4.63;;;24.00;94.20;;;;;;5081645;28;20039;-81
2023/08/24 12:39:07;;;;;;;14.23;8.00;;;24.00;94.10;;;;;;5086834;28;20048;-80
2023/08/24 12:41:32;;;;;;;13.73;8.20;;;24.00;94.40;;;;;;5072331;28;20043;-80
2023/08/24 12:43:59;;;;;;;13.65;9.20;;;24.00;94.50;;;;;;5053698;28;20120;-80
2023/08/24 12:46:25;;;;;;;9.30;6.68;;;24.10;94.50;;;;;;5059643;28;20040;-81
2023/08/24 12:48:51;;;;;;;10.60;6.18;;;24.10;94.40;;;;;;5073445;28;20044;-81